sensor_id;sensor_type;location;lat;lon;timestamp;temperature;humidity
9845;DHT22;4961;50.782;6.080;2022-10-04T00:02:22;12.40;99.90
9845;DHT22;4961;50.782;6.080;2022-10-04T00:04:56;12.40;99.90
9845;DHT22;4961;50.782;6.080;2022-10-04T00:07:33;12.40;99.90
9845;DHT22;4961;50.782;6.080;2022-10-04T00:10:13;12.40;99.90
9845;DHT22;4961;50.782;6.080;2022-10-04T00:12:47;12.40;99.90
9845;DHT22;4961;50.782;6.080;2022-10-04T00:15:19;12.40;99.90
9845;DHT22;4961;50.782;6.080;2022-10-04T00:18:06;12.40;99.90
9845;DHT22;4961;50.782;6.080;2022-10-04T00:21:02;12.50;99.90
9845;DHT22;4961;50.782;6.080;2022-10-04T00:23:51;12.40;99.90
9845;DHT22;4961;50.782;6.080;2022-10-04T00:29:34;12.40;99.90
9845;DHT22;4961;50.782;6.080;2022-10-04T00:32:26;12.40;99.90
9845;DHT22;4961;50.782;6.080;2022-10-04T00:34:58;12.50;99.90
9845;DHT22;4961;50.782;6.080;2022-10-04T00:37:53;12.40;99.90
9845;DHT22;4961;50.782;6.080;2022-10-04T00:40:26;12.40;99.90
9845;DHT22;4961;50.782;6.080;2022-10-04T00:42:57;12.40;99.90
9845;DHT22;4961;50.782;6.080;2022-10-04T00:45:36;12.40;99.90
9845;DHT22;4961;50.782;6.080;2022-10-04T00:48:24;12.40;99.90
9845;DHT22;4961;50.782;6.080;2022-10-04T00:51:01;12.40;99.90
9845;DHT22;4961;50.782;6.080;2022-10-04T00:53:54;12.40;99.90
9845;DHT22;4961;50.782;6.080;2022-10-04T00:56:33;12.50;99.90
9845;DHT22;4961;50.782;6.080;2022-10-04T01:01:58;12.50;99.90
9845;DHT22;4961;50.782;6.080;2022-10-04T01:04:38;12.60;99.90
9845;DHT22;4961;50.782;6.080;2022-10-04T01:07:08;12.50;99.90
9845;DHT22;4961;50.782;6.080;2022-10-04T01:09:44;12.50;99.90
9845;DHT22;4961;50.782;6.080;2022-10-04T01:12:22;12.50;99.90
9845;DHT22;4961;50.782;6.080;2022-10-04T01:14:58;12.50;99.90
9845;DHT22;4961;50.782;6.080;2022-10-04T01:17:29;12.50;99.90
9845;DHT22;4961;50.782;6.080;2022-10-04T01:19:58;12.50;99.90
9845;DHT22;4961;50.782;6.080;2022-10-04T01:22:36;12.60;99.90
9845;DHT22;4961;50.782;6.080;2022-10-04T01:25:07;12.60;99.90
9845;DHT22;4961;50.782;6.080;2022-10-04T01:27:40;12.60;99.90
9845;DHT22;4961;50.782;6.080;2022-10-04T01:30:11;12.60;99.90
9845;DHT22;4961;50.782;6.080;2022-10-04T01:32:40;12.60;99.90
9845;DHT22;4961;50.782;6.080;2022-10-04T01:35:12;12.60;99.90
9845;DHT22;4961;50.782;6.080;2022-10-04T01:37:42;12.60;99.90
9845;DHT22;4961;50.782;6.080;2022-10-04T01:40:11;12.60;99.90
9845;DHT22;4961;50.782;6.080;2022-10-04T01:42:42;12.70;99.90
9845;DHT22;4961;50.782;6.080;2022-10-04T01:45:17;12.70;99.90
9845;DHT22;4961;50.782;6.080;2022-10-04T01:47:52;12.70;99.90
9845;DHT22;4961;50.782;6.080;2022-10-04T01:50:27;12.70;99.90
9845;DHT22;4961;50.782;6.080;2022-10-04T01:53:05;12.60;99.90
9845;DHT22;4961;50.782;6.080;2022-10-04T01:55:38;12.60;99.90
9845;DHT22;4961;50.782;6.080;2022-10-04T01:58:12;12.60;99.90
9845;DHT22;4961;50.782;6.080;2022-10-04T02:00:45;12.60;99.90
9845;DHT22;4961;50.782;6.080;2022-10-04T02:03:19;12.60;99.90
9845;DHT22;4961;50.782;6.080;2022-10-04T02:05:51;12.60;99.90
9845;DHT22;4961;50.782;6.080;2022-10-04T02:08:26;12.50;99.90
9845;DHT22;4961;50.782;6.080;2022-10-04T02:10:56;12.60;99.90
9845;DHT22;4961;50.782;6.080;2022-10-04T02:13:26;12.50;99.90
9845;DHT22;4961;50.782;6.080;2022-10-04T02:15:57;12.50;99.90
9845;DHT22;4961;50.782;6.080;2022-10-04T02:18:27;12.50;99.90
9845;DHT22;4961;50.782;6.080;2022-10-04T02:20:58;12.50;99.90
9845;DHT22;4961;50.782;6.080;2022-10-04T02:23:29;12.50;99.90
9845;DHT22;4961;50.782;6.080;2022-10-04T02:25:59;12.40;99.90
9845;DHT22;4961;50.782;6.080;2022-10-04T02:28:31;12.30;99.90
9845;DHT22;4961;50.782;6.080;2022-10-04T02:31:00;12.30;99.90
9845;DHT22;4961;50.782;6.080;2022-10-04T02:33:59;12.30;99.90
9845;DHT22;4961;50.782;6.080;2022-10-04T02:36:28;12.20;99.90
9845;DHT22;4961;50.782;6.080;2022-10-04T02:39:00;12.20;99.90
9845;DHT22;4961;50.782;6.080;2022-10-04T02:41:32;12.20;99.90
9845;DHT22;4961;50.782;6.080;2022-10-04T02:44:07;12.10;99.90
9845;DHT22;4961;50.782;6.080;2022-10-04T02:46:43;12.10;99.90
9845;DHT22;4961;50.782;6.080;2022-10-04T02:49:19;12.10;99.90
9845;DHT22;4961;50.782;6.080;2022-10-04T02:51:51;12.00;99.90
9845;DHT22;4961;50.782;6.080;2022-10-04T02:54:27;12.00;99.90
9845;DHT22;4961;50.782;6.080;2022-10-04T02:56:56;12.00;99.90
9845;DHT22;4961;50.782;6.080;2022-10-04T02:59:25;12.00;99.90
9845;DHT22;4961;50.782;6.080;2022-10-04T03:01:59;12.00;99.90
9845;DHT22;4961;50.782;6.080;2022-10-04T03:04:30;12.00;99.90
9845;DHT22;4961;50.782;6.080;2022-10-04T03:07:01;12.00;99.90
9845;DHT22;4961;50.782;6.080;2022-10-04T03:09:33;11.90;99.90
9845;DHT22;4961;50.782;6.080;2022-10-04T03:12:03;12.00;99.90
9845;DHT22;4961;50.782;6.080;2022-10-04T03:14:32;11.90;99.90
9845;DHT22;4961;50.782;6.080;2022-10-04T03:17:02;11.80;99.90
9845;DHT22;4961;50.782;6.080;2022-10-04T03:19:32;11.90;99.90
9845;DHT22;4961;50.782;6.080;2022-10-04T03:22:02;11.80;99.90
9845;DHT22;4961;50.782;6.080;2022-10-04T03:24:37;11.80;99.90
9845;DHT22;4961;50.782;6.080;2022-10-04T03:27:08;11.80;99.90
9845;DHT22;4961;50.782;6.080;2022-10-04T03:29:41;11.80;99.90
9845;DHT22;4961;50.782;6.080;2022-10-04T03:32:13;11.70;99.90
9845;DHT22;4961;50.782;6.080;2022-10-04T03:34:48;11.70;99.90
9845;DHT22;4961;50.782;6.080;2022-10-04T03:37:18;11.70;99.90
9845;DHT22;4961;50.782;6.080;2022-10-04T03:39:50;11.60;99.90
9845;DHT22;4961;50.782;6.080;2022-10-04T03:42:21;11.60;99.90
9845;DHT22;4961;50.782;6.080;2022-10-04T03:44:51;11.60;99.90
9845;DHT22;4961;50.782;6.080;2022-10-04T03:47:24;11.70;99.90
9845;DHT22;4961;50.782;6.080;2022-10-04T03:49:53;11.70;99.90
9845;DHT22;4961;50.782;6.080;2022-10-04T03:52:24;11.70;99.90
9845;DHT22;4961;50.782;6.080;2022-10-04T03:54:57;11.70;99.90
9845;DHT22;4961;50.782;6.080;2022-10-04T03:57:26;11.60;99.90
9845;DHT22;4961;50.782;6.080;2022-10-04T03:59:55;11.60;99.90
9845;DHT22;4961;50.782;6.080;2022-10-04T04:02:31;11.60;99.90
9845;DHT22;4961;50.782;6.080;2022-10-04T04:05:08;11.60;99.90
9845;DHT22;4961;50.782;6.080;2022-10-04T04:07:40;11.60;99.90
9845;DHT22;4961;50.782;6.080;2022-10-04T04:10:17;11.50;99.90
9845;DHT22;4961;50.782;6.080;2022-10-04T04:12:53;11.60;99.90
9845;DHT22;4961;50.782;6.080;2022-10-04T04:15:27;11.60;99.90
9845;DHT22;4961;50.782;6.080;2022-10-04T04:17:58;11.60;99.90
9845;DHT22;4961;50.782;6.080;2022-10-04T04:20:30;11.60;99.90
9845;DHT22;4961;50.782;6.080;2022-10-04T04:23:02;11.60;99.90
9845;DHT22;4961;50.782;6.080;2022-10-04T04:25:37;11.60;99.90
9845;DHT22;4961;50.782;6.080;2022-10-04T04:28:14;11.60;99.90
9845;DHT22;4961;50.782;6.080;2022-10-04T04:30:51;11.60;99.90
9845;DHT22;4961;50.782;6.080;2022-10-04T04:33:25;11.60;99.90
9845;DHT22;4961;50.782;6.080;2022-10-04T04:36:02;11.60;99.90
9845;DHT22;4961;50.782;6.080;2022-10-04T04:38:31;11.50;99.90
9845;DHT22;4961;50.782;6.080;2022-10-04T04:41:08;11.50;99.90
9845;DHT22;4961;50.782;6.080;2022-10-04T04:43:42;11.40;99.90
9845;DHT22;4961;50.782;6.080;2022-10-04T04:46:10;11.40;99.90
9845;DHT22;4961;50.782;6.080;2022-10-04T04:48:58;11.40;99.90
9845;DHT22;4961;50.782;6.080;2022-10-04T04:51:30;11.40;99.90
9845;DHT22;4961;50.782;6.080;2022-10-04T04:54:01;11.30;99.90
9845;DHT22;4961;50.782;6.080;2022-10-04T04:56:31;11.30;99.90
9845;DHT22;4961;50.782;6.080;2022-10-04T04:59:03;11.20;99.90
9845;DHT22;4961;50.782;6.080;2022-10-04T05:01:35;11.20;99.90
9845;DHT22;4961;50.782;6.080;2022-10-04T05:04:04;11.20;99.90
9845;DHT22;4961;50.782;6.080;2022-10-04T05:06:34;11.20;99.90
9845;DHT22;4961;50.782;6.080;2022-10-04T05:09:04;11.20;99.90
9845;DHT22;4961;50.782;6.080;2022-10-04T05:11:36;11.20;99.90
9845;DHT22;4961;50.782;6.080;2022-10-04T05:14:08;11.30;99.90
9845;DHT22;4961;50.782;6.080;2022-10-04T05:16:40;11.20;99.90
9845;DHT22;4961;50.782;6.080;2022-10-04T05:19:13;11.30;99.90
9845;DHT22;4961;50.782;6.080;2022-10-04T05:21:44;11.30;99.90
9845;DHT22;4961;50.782;6.080;2022-10-04T05:24:21;11.30;99.90
9845;DHT22;4961;50.782;6.080;2022-10-04T05:26:53;11.30;99.90
9845;DHT22;4961;50.782;6.080;2022-10-04T05:29:24;11.20;99.90
9845;DHT22;4961;50.782;6.080;2022-10-04T05:32:02;11.30;99.90
9845;DHT22;4961;50.782;6.080;2022-10-04T05:34:37;11.20;99.90
9845;DHT22;4961;50.782;6.080;2022-10-04T05:37:18;11.20;99.90
9845;DHT22;4961;50.782;6.080;2022-10-04T05:39:58;11.20;99.90
9845;DHT22;4961;50.782;6.080;2022-10-04T05:42:35;11.20;99.90
9845;DHT22;4961;50.782;6.080;2022-10-04T05:45:13;11.10;99.90
9845;DHT22;4961;50.782;6.080;2022-10-04T05:47:44;11.10;99.90
9845;DHT22;4961;50.782;6.080;2022-10-04T05:50:16;11.10;99.90
9845;DHT22;4961;50.782;6.080;2022-10-04T05:52:48;11.10;99.90
9845;DHT22;4961;50.782;6.080;2022-10-04T05:55:26;11.10;99.90
9845;DHT22;4961;50.782;6.080;2022-10-04T05:58:25;11.00;99.90
9845;DHT22;4961;50.782;6.080;2022-10-04T06:01:12;11.10;99.90
9845;DHT22;4961;50.782;6.080;2022-10-04T06:04:02;11.10;99.90
9845;DHT22;4961;50.782;6.080;2022-10-04T06:06:39;11.00;99.90
9845;DHT22;4961;50.782;6.080;2022-10-04T06:09:14;11.00;99.90
9845;DHT22;4961;50.782;6.080;2022-10-04T06:11:56;11.00;99.90
9845;DHT22;4961;50.782;6.080;2022-10-04T06:14:58;11.00;99.90
9845;DHT22;4961;50.782;6.080;2022-10-04T06:18:00;11.10;99.90
9845;DHT22;4961;50.782;6.080;2022-10-04T06:23:35;11.10;99.90
9845;DHT22;4961;50.782;6.080;2022-10-04T06:26:09;11.10;99.90
9845;DHT22;4961;50.782;6.080;2022-10-04T06:28:40;11.10;99.90
9845;DHT22;4961;50.782;6.080;2022-10-04T06:31:43;11.20;99.90
9845;DHT22;4961;50.782;6.080;2022-10-04T06:34:36;11.20;99.90
9845;DHT22;4961;50.782;6.080;2022-10-04T06:37:18;11.30;99.90
9845;DHT22;4961;50.782;6.080;2022-10-04T06:40:02;11.40;99.90
9845;DHT22;4961;50.782;6.080;2022-10-04T06:42:59;11.40;99.90
9845;DHT22;4961;50.782;6.080;2022-10-04T06:45:50;11.50;99.90
9845;DHT22;4961;50.782;6.080;2022-10-04T06:51:41;11.60;99.90
9845;DHT22;4961;50.782;6.080;2022-10-04T06:54:20;11.60;99.90
9845;DHT22;4961;50.782;6.080;2022-10-04T06:57:12;11.70;99.90
9845;DHT22;4961;50.782;6.080;2022-10-04T06:59:51;11.80;99.90
9845;DHT22;4961;50.782;6.080;2022-10-04T07:02:26;11.80;99.90
9845;DHT22;4961;50.782;6.080;2022-10-04T07:05:02;11.90;99.90
9845;DHT22;4961;50.782;6.080;2022-10-04T07:07:36;12.00;99.90
9845;DHT22;4961;50.782;6.080;2022-10-04T07:10:20;12.10;99.90
9845;DHT22;4961;50.782;6.080;2022-10-04T07:12:58;12.10;99.90
9845;DHT22;4961;50.782;6.080;2022-10-04T07:15:30;12.20;99.90
9845;DHT22;4961;50.782;6.080;2022-10-04T07:18:04;12.30;99.90
9845;DHT22;4961;50.782;6.080;2022-10-04T07:20:36;12.40;99.90
9845;DHT22;4961;50.782;6.080;2022-10-04T07:23:11;12.50;99.90
9845;DHT22;4961;50.782;6.080;2022-10-04T07:25:44;12.50;99.90
9845;DHT22;4961;50.782;6.080;2022-10-04T07:28:16;12.50;99.90
9845;DHT22;4961;50.782;6.080;2022-10-04T07:31:04;12.70;99.90
9845;DHT22;4961;50.782;6.080;2022-10-04T07:33:43;12.80;99.90
9845;DHT22;4961;50.782;6.080;2022-10-04T07:36:17;13.00;99.90
9845;DHT22;4961;50.782;6.080;2022-10-04T07:38:52;13.00;99.90
9845;DHT22;4961;50.782;6.080;2022-10-04T07:41:24;13.10;99.90
9845;DHT22;4961;50.782;6.080;2022-10-04T07:43:56;13.20;99.90
9845;DHT22;4961;50.782;6.080;2022-10-04T07:46:38;13.20;99.90
9845;DHT22;4961;50.782;6.080;2022-10-04T07:49:18;13.30;99.90
9845;DHT22;4961;50.782;6.080;2022-10-04T07:52:22;13.40;99.90
9845;DHT22;4961;50.782;6.080;2022-10-04T07:55:01;13.50;99.90
9845;DHT22;4961;50.782;6.080;2022-10-04T07:57:46;13.60;99.90
9845;DHT22;4961;50.782;6.080;2022-10-04T08:00:25;13.60;99.90
9845;DHT22;4961;50.782;6.080;2022-10-04T08:03:18;13.60;99.90
9845;DHT22;4961;50.782;6.080;2022-10-04T08:05:53;13.60;99.90
9845;DHT22;4961;50.782;6.080;2022-10-04T08:08:42;13.60;99.90
9845;DHT22;4961;50.782;6.080;2022-10-04T08:11:20;13.70;99.90
9845;DHT22;4961;50.782;6.080;2022-10-04T08:13:59;13.70;99.90
9845;DHT22;4961;50.782;6.080;2022-10-04T08:16:41;13.70;99.90
9845;DHT22;4961;50.782;6.080;2022-10-04T08:19:37;13.70;99.90
9845;DHT22;4961;50.782;6.080;2022-10-04T08:22:22;13.80;99.90
9845;DHT22;4961;50.782;6.080;2022-10-04T08:25:03;13.80;99.90
9845;DHT22;4961;50.782;6.080;2022-10-04T08:27:47;13.90;99.90
9845;DHT22;4961;50.782;6.080;2022-10-04T08:30:55;13.90;99.90
9845;DHT22;4961;50.782;6.080;2022-10-04T08:33:40;14.10;99.90
9845;DHT22;4961;50.782;6.080;2022-10-04T08:36:24;14.20;99.90
9845;DHT22;4961;50.782;6.080;2022-10-04T08:38:59;14.30;99.90
9845;DHT22;4961;50.782;6.080;2022-10-04T08:42:17;14.50;99.90
9845;DHT22;4961;50.782;6.080;2022-10-04T08:48:31;15.00;99.90
9845;DHT22;4961;50.782;6.080;2022-10-04T09:00:49;16.90;99.90
9845;DHT22;4961;50.782;6.080;2022-10-04T09:03:44;17.50;99.90
9845;DHT22;4961;50.782;6.080;2022-10-04T09:06:26;17.90;99.90
9845;DHT22;4961;50.782;6.080;2022-10-04T09:09:34;18.30;99.90
9845;DHT22;4961;50.782;6.080;2022-10-04T09:15:28;19.30;99.90
9845;DHT22;4961;50.782;6.080;2022-10-04T09:21:11;20.00;99.90
9845;DHT22;4961;50.782;6.080;2022-10-04T09:26:43;20.70;99.90
9845;DHT22;4961;50.782;6.080;2022-10-04T09:32:41;21.30;99.90
9845;DHT22;4961;50.782;6.080;2022-10-04T09:35:33;21.50;99.90
9845;DHT22;4961;50.782;6.080;2022-10-04T09:41:26;21.90;99.90
9845;DHT22;4961;50.782;6.080;2022-10-04T09:44:22;22.10;99.90
9845;DHT22;4961;50.782;6.080;2022-10-04T09:47:09;22.40;99.90
9845;DHT22;4961;50.782;6.080;2022-10-04T09:50:02;22.50;99.90
9845;DHT22;4961;50.782;6.080;2022-10-04T09:52:48;22.60;99.90
9845;DHT22;4961;50.782;6.080;2022-10-04T09:55:34;22.80;99.90
9845;DHT22;4961;50.782;6.080;2022-10-04T09:58:30;23.00;99.90
9845;DHT22;4961;50.782;6.080;2022-10-04T10:01:05;23.00;99.90
9845;DHT22;4961;50.782;6.080;2022-10-04T10:07:14;23.30;99.90
9845;DHT22;4961;50.782;6.080;2022-10-04T10:09:57;23.50;99.90
9845;DHT22;4961;50.782;6.080;2022-10-04T10:13:01;23.60;99.90
9845;DHT22;4961;50.782;6.080;2022-10-04T10:16:03;23.70;99.90
9845;DHT22;4961;50.782;6.080;2022-10-04T10:22:11;23.70;99.90
9845;DHT22;4961;50.782;6.080;2022-10-04T10:25:20;23.80;99.90
9845;DHT22;4961;50.782;6.080;2022-10-04T10:28:22;23.70;99.90
9845;DHT22;4961;50.782;6.080;2022-10-04T10:31:09;23.80;99.90
9845;DHT22;4961;50.782;6.080;2022-10-04T10:36:49;23.80;99.90
9845;DHT22;4961;50.782;6.080;2022-10-04T10:39:36;23.50;99.90
9845;DHT22;4961;50.782;6.080;2022-10-04T10:42:23;23.20;99.90
9845;DHT22;4961;50.782;6.080;2022-10-04T10:45:14;23.10;99.90
9845;DHT22;4961;50.782;6.080;2022-10-04T10:47:52;23.20;99.90
9845;DHT22;4961;50.782;6.080;2022-10-04T10:50:43;23.10;99.90
9845;DHT22;4961;50.782;6.080;2022-10-04T10:56:55;23.20;99.90
9845;DHT22;4961;50.782;6.080;2022-10-04T11:00:02;22.90;99.90
9845;DHT22;4961;50.782;6.080;2022-10-04T11:06:13;23.00;99.90
9845;DHT22;4961;50.782;6.080;2022-10-04T11:09:25;23.10;99.90
9845;DHT22;4961;50.782;6.080;2022-10-04T11:12:34;23.20;99.90
9845;DHT22;4961;50.782;6.080;2022-10-04T11:18:49;23.00;99.90
9845;DHT22;4961;50.782;6.080;2022-10-04T11:24:59;22.70;99.90
9845;DHT22;4961;50.782;6.080;2022-10-04T11:27:43;22.70;99.90
9845;DHT22;4961;50.782;6.080;2022-10-04T11:30:19;22.70;99.90
9845;DHT22;4961;50.782;6.080;2022-10-04T11:33:22;22.60;99.90
9845;DHT22;4961;50.782;6.080;2022-10-04T11:41:53;22.40;99.90
9845;DHT22;4961;50.782;6.080;2022-10-04T11:47:37;22.20;99.90
9845;DHT22;4961;50.782;6.080;2022-10-04T11:50:35;22.00;99.90
9845;DHT22;4961;50.782;6.080;2022-10-04T11:53:37;22.00;99.90
9845;DHT22;4961;50.782;6.080;2022-10-04T11:56:32;22.00;99.90
9845;DHT22;4961;50.782;6.080;2022-10-04T11:59:14;21.90;99.90
9845;DHT22;4961;50.782;6.080;2022-10-04T12:02:39;21.90;99.90
9845;DHT22;4961;50.782;6.080;2022-10-04T12:05:51;21.90;99.90
9845;DHT22;4961;50.782;6.080;2022-10-04T12:08:27;21.90;99.90
9845;DHT22;4961;50.782;6.080;2022-10-04T12:15:02;21.70;99.90
9845;DHT22;4961;50.782;6.080;2022-10-04T12:17:58;21.60;99.90
9845;DHT22;4961;50.782;6.080;2022-10-04T12:23:51;21.50;99.90
9845;DHT22;4961;50.782;6.080;2022-10-04T12:26:46;21.50;99.90
9845;DHT22;4961;50.782;6.080;2022-10-04T12:32:41;21.50;99.90
9845;DHT22;4961;50.782;6.080;2022-10-04T12:35:31;21.50;99.90
9845;DHT22;4961;50.782;6.080;2022-10-04T12:38:25;21.50;99.90
9845;DHT22;4961;50.782;6.080;2022-10-04T12:41:08;21.50;99.90
9845;DHT22;4961;50.782;6.080;2022-10-04T12:43:44;21.40;99.90
9845;DHT22;4961;50.782;6.080;2022-10-04T12:46:25;21.40;99.90
9845;DHT22;4961;50.782;6.080;2022-10-04T12:49:07;21.40;99.90
9845;DHT22;4961;50.782;6.080;2022-10-04T12:51:48;21.30;99.90
9845;DHT22;4961;50.782;6.080;2022-10-04T12:54:33;21.40;99.90
9845;DHT22;4961;50.782;6.080;2022-10-04T12:57:23;21.30;99.90
9845;DHT22;4961;50.782;6.080;2022-10-04T13:00:01;21.30;99.90
9845;DHT22;4961;50.782;6.080;2022-10-04T13:02:50;21.30;99.90
9845;DHT22;4961;50.782;6.080;2022-10-04T13:05:24;21.20;99.90
9845;DHT22;4961;50.782;6.080;2022-10-04T13:08:19;21.30;99.90
9845;DHT22;4961;50.782;6.080;2022-10-04T13:11:26;21.30;99.90
9845;DHT22;4961;50.782;6.080;2022-10-04T13:14:28;21.30;99.90
9845;DHT22;4961;50.782;6.080;2022-10-04T13:17:05;21.10;99.90
9845;DHT22;4961;50.782;6.080;2022-10-04T13:20:11;21.10;99.90
9845;DHT22;4961;50.782;6.080;2022-10-04T13:22:48;21.30;99.90
9845;DHT22;4961;50.782;6.080;2022-10-04T13:25:36;21.30;99.90
9845;DHT22;4961;50.782;6.080;2022-10-04T13:28:15;21.40;99.90
9845;DHT22;4961;50.782;6.080;2022-10-04T13:30:56;21.40;99.90
9845;DHT22;4961;50.782;6.080;2022-10-04T13:33:34;21.50;99.90
9845;DHT22;4961;50.782;6.080;2022-10-04T13:36:07;21.40;99.90
9845;DHT22;4961;50.782;6.080;2022-10-04T13:39:15;21.50;99.90
9845;DHT22;4961;50.782;6.080;2022-10-04T13:42:15;21.60;99.90
9845;DHT22;4961;50.782;6.080;2022-10-04T13:45:09;21.70;99.90
9845;DHT22;4961;50.782;6.080;2022-10-04T13:47:55;21.80;99.90
9845;DHT22;4961;50.782;6.080;2022-10-04T13:50:37;21.80;99.90
9845;DHT22;4961;50.782;6.080;2022-10-04T13:53:19;21.90;99.90
9845;DHT22;4961;50.782;6.080;2022-10-04T13:56:41;21.70;99.90
9845;DHT22;4961;50.782;6.080;2022-10-04T13:59:19;21.80;99.90
9845;DHT22;4961;50.782;6.080;2022-10-04T14:05:29;21.80;99.90
9845;DHT22;4961;50.782;6.080;2022-10-04T14:11:21;21.80;99.90
9845;DHT22;4961;50.782;6.080;2022-10-04T14:17:53;21.70;99.90
9845;DHT22;4961;50.782;6.080;2022-10-04T14:24:15;21.50;99.90
9845;DHT22;4961;50.782;6.080;2022-10-04T14:27:27;21.50;99.90
9845;DHT22;4961;50.782;6.080;2022-10-04T14:30:19;21.50;99.90
9845;DHT22;4961;50.782;6.080;2022-10-04T14:33:31;21.60;99.90
9845;DHT22;4961;50.782;6.080;2022-10-04T14:36:26;21.60;99.90
9845;DHT22;4961;50.782;6.080;2022-10-04T14:39:15;21.50;99.90
9845;DHT22;4961;50.782;6.080;2022-10-04T14:42:22;21.60;99.90
9845;DHT22;4961;50.782;6.080;2022-10-04T14:45:15;21.60;99.90
9845;DHT22;4961;50.782;6.080;2022-10-04T14:50:58;21.50;99.90
9845;DHT22;4961;50.782;6.080;2022-10-04T14:53:37;21.50;99.90
9845;DHT22;4961;50.782;6.080;2022-10-04T14:59:25;21.50;99.90
9845;DHT22;4961;50.782;6.080;2022-10-04T15:02:18;21.40;99.90
9845;DHT22;4961;50.782;6.080;2022-10-04T15:05:18;21.30;99.90
9845;DHT22;4961;50.782;6.080;2022-10-04T15:07:55;21.30;99.90
9845;DHT22;4961;50.782;6.080;2022-10-04T15:10:30;21.20;99.90
9845;DHT22;4961;50.782;6.080;2022-10-04T15:13:07;21.10;99.90
9845;DHT22;4961;50.782;6.080;2022-10-04T15:15:53;21.00;99.90
9845;DHT22;4961;50.782;6.080;2022-10-04T15:18:44;20.90;99.90
9845;DHT22;4961;50.782;6.080;2022-10-04T15:21:34;20.90;99.90
9845;DHT22;4961;50.782;6.080;2022-10-04T15:24:26;20.90;99.90
9845;DHT22;4961;50.782;6.080;2022-10-04T15:30:02;20.90;99.90
9845;DHT22;4961;50.782;6.080;2022-10-04T15:32:40;20.80;99.90
9845;DHT22;4961;50.782;6.080;2022-10-04T15:35:22;20.70;99.90
9845;DHT22;4961;50.782;6.080;2022-10-04T15:37:56;20.60;99.90
9845;DHT22;4961;50.782;6.080;2022-10-04T15:40:35;20.60;99.90
9845;DHT22;4961;50.782;6.080;2022-10-04T15:43:23;20.40;99.90
9845;DHT22;4961;50.782;6.080;2022-10-04T15:49:03;20.30;99.90
9845;DHT22;4961;50.782;6.080;2022-10-04T15:51:48;20.10;99.90
9845;DHT22;4961;50.782;6.080;2022-10-04T15:57:54;20.00;99.90
9845;DHT22;4961;50.782;6.080;2022-10-04T16:00:38;20.00;99.90
9845;DHT22;4961;50.782;6.080;2022-10-04T16:03:17;19.90;99.90
9845;DHT22;4961;50.782;6.080;2022-10-04T16:05:58;19.90;99.90
9845;DHT22;4961;50.782;6.080;2022-10-04T16:08:45;19.80;99.90
9845;DHT22;4961;50.782;6.080;2022-10-04T16:11:36;19.60;99.90
9845;DHT22;4961;50.782;6.080;2022-10-04T16:14:32;19.70;99.90
9845;DHT22;4961;50.782;6.080;2022-10-04T16:17:27;19.60;99.90
9845;DHT22;4961;50.782;6.080;2022-10-04T16:20:11;19.50;99.90
9845;DHT22;4961;50.782;6.080;2022-10-04T16:25:47;19.40;99.90
9845;DHT22;4961;50.782;6.080;2022-10-04T16:28:26;19.30;99.90
9845;DHT22;4961;50.782;6.080;2022-10-04T16:31:26;19.10;99.90
9845;DHT22;4961;50.782;6.080;2022-10-04T16:37:23;19.10;99.90
9845;DHT22;4961;50.782;6.080;2022-10-04T16:39:56;19.00;99.90
9845;DHT22;4961;50.782;6.080;2022-10-04T16:42:33;19.00;99.90
9845;DHT22;4961;50.782;6.080;2022-10-04T16:45:42;18.90;99.90
9845;DHT22;4961;50.782;6.080;2022-10-04T16:48:22;18.90;99.90
9845;DHT22;4961;50.782;6.080;2022-10-04T16:53:50;18.70;99.90
9845;DHT22;4961;50.782;6.080;2022-10-04T16:56:21;18.60;99.90
9845;DHT22;4961;50.782;6.080;2022-10-04T16:58:54;18.60;99.90
9845;DHT22;4961;50.782;6.080;2022-10-04T17:01:46;18.50;99.90
9845;DHT22;4961;50.782;6.080;2022-10-04T17:04:51;18.40;99.90
9845;DHT22;4961;50.782;6.080;2022-10-04T17:07:31;18.40;99.90
9845;DHT22;4961;50.782;6.080;2022-10-04T17:10:16;18.30;99.90
9845;DHT22;4961;50.782;6.080;2022-10-04T17:12:53;18.20;99.90
9845;DHT22;4961;50.782;6.080;2022-10-04T17:15:34;18.10;99.90
9845;DHT22;4961;50.782;6.080;2022-10-04T17:18:17;18.10;99.90
9845;DHT22;4961;50.782;6.080;2022-10-04T17:20:53;18.00;99.90
9845;DHT22;4961;50.782;6.080;2022-10-04T17:23:50;18.00;99.90
9845;DHT22;4961;50.782;6.080;2022-10-04T17:26:33;17.90;99.90
9845;DHT22;4961;50.782;6.080;2022-10-04T17:29:18;17.90;99.90
9845;DHT22;4961;50.782;6.080;2022-10-04T17:31:56;17.80;99.90
9845;DHT22;4961;50.782;6.080;2022-10-04T17:34:32;17.80;99.90
9845;DHT22;4961;50.782;6.080;2022-10-04T17:37:14;17.70;99.90
9845;DHT22;4961;50.782;6.080;2022-10-04T17:39:51;17.70;99.90
9845;DHT22;4961;50.782;6.080;2022-10-04T17:42:28;17.60;99.90
9845;DHT22;4961;50.782;6.080;2022-10-04T17:47:59;17.60;99.90
9845;DHT22;4961;50.782;6.080;2022-10-04T17:50:53;17.50;99.90
9845;DHT22;4961;50.782;6.080;2022-10-04T17:53:45;17.30;99.90
9845;DHT22;4961;50.782;6.080;2022-10-04T17:56:37;17.30;99.90
9845;DHT22;4961;50.782;6.080;2022-10-04T17:59:11;17.20;99.90
9845;DHT22;4961;50.782;6.080;2022-10-04T18:01:45;17.20;99.90
9845;DHT22;4961;50.782;6.080;2022-10-04T18:04:18;17.10;99.90
9845;DHT22;4961;50.782;6.080;2022-10-04T18:06:50;17.10;99.90
9845;DHT22;4961;50.782;6.080;2022-10-04T18:09:23;17.10;99.90
9845;DHT22;4961;50.782;6.080;2022-10-04T18:11:58;17.10;99.90
9845;DHT22;4961;50.782;6.080;2022-10-04T18:14:49;17.00;99.90
9845;DHT22;4961;50.782;6.080;2022-10-04T18:17:28;17.00;99.90
9845;DHT22;4961;50.782;6.080;2022-10-04T18:23:00;17.00;99.90
9845;DHT22;4961;50.782;6.080;2022-10-04T18:25:33;16.90;99.90
9845;DHT22;4961;50.782;6.080;2022-10-04T18:28:13;16.90;99.90
9845;DHT22;4961;50.782;6.080;2022-10-04T18:30:53;16.80;99.90
9845;DHT22;4961;50.782;6.080;2022-10-04T18:33:30;16.80;99.90
9845;DHT22;4961;50.782;6.080;2022-10-04T18:36:14;16.70;99.90
9845;DHT22;4961;50.782;6.080;2022-10-04T18:38:46;16.60;99.90
9845;DHT22;4961;50.782;6.080;2022-10-04T18:41:26;16.70;99.90
9845;DHT22;4961;50.782;6.080;2022-10-04T18:44:19;16.60;99.90
9845;DHT22;4961;50.782;6.080;2022-10-04T18:46:54;16.60;99.90
9845;DHT22;4961;50.782;6.080;2022-10-04T18:49:27;16.60;99.90
9845;DHT22;4961;50.782;6.080;2022-10-04T18:52:07;16.50;99.90
9845;DHT22;4961;50.782;6.080;2022-10-04T18:54:47;16.60;99.90
9845;DHT22;4961;50.782;6.080;2022-10-04T18:57:24;16.60;99.90
9845;DHT22;4961;50.782;6.080;2022-10-04T19:00:03;16.60;99.90
9845;DHT22;4961;50.782;6.080;2022-10-04T19:02:59;16.50;99.90
9845;DHT22;4961;50.782;6.080;2022-10-04T19:05:38;16.50;99.90
9845;DHT22;4961;50.782;6.080;2022-10-04T19:08:15;16.50;99.90
9845;DHT22;4961;50.782;6.080;2022-10-04T19:10:52;16.50;99.90
9845;DHT22;4961;50.782;6.080;2022-10-04T19:13:30;16.50;99.90
9845;DHT22;4961;50.782;6.080;2022-10-04T19:16:13;16.50;99.90
9845;DHT22;4961;50.782;6.080;2022-10-04T19:18:50;16.40;99.90
9845;DHT22;4961;50.782;6.080;2022-10-04T19:21:27;16.40;99.90
9845;DHT22;4961;50.782;6.080;2022-10-04T19:27:02;16.30;99.90
9845;DHT22;4961;50.782;6.080;2022-10-04T19:29:41;16.30;99.90
9845;DHT22;4961;50.782;6.080;2022-10-04T19:32:21;16.30;99.90
9845;DHT22;4961;50.782;6.080;2022-10-04T19:35:00;16.20;99.90
9845;DHT22;4961;50.782;6.080;2022-10-04T19:37:34;16.20;99.90
9845;DHT22;4961;50.782;6.080;2022-10-04T19:40:12;16.20;99.90
9845;DHT22;4961;50.782;6.080;2022-10-04T19:42:48;16.10;99.90
9845;DHT22;4961;50.782;6.080;2022-10-04T19:45:29;16.00;99.90